Accueil
METAR-TAF:

METAR-TAF

Aéroports :

Ingolstadt, Allemagne

latitude: 48-43N, longitude: 011-32E, altitude: 367 m

Observation

Le bulletin a été fait il y a 1 heure et 7 minutes, à 11:20 UTC
Vent 3 kt de ouest/nord-ouest
Température 7°C
Humidité 66%
Pression 1019 hPa
Visibilité 10 km ou plus
Nuages épars à une hauteur de 2200 ft
Nuages fragmentés à une hauteur de 2800 ft

METAR: ETSI 181120Z 29003KT 9999 SCT022 BKN028 07/01 Q1019 BLU

Heure: 14:27 (12:27 UTC)


TAF: absent

Observations et prévisions météorologiques de plus de 4000 aéroports (messages METAR et TAF).

Les stations disponibles sont représentées par des disques jaunes et rouges sur la carte.

Passer la souris dessus pour voir le nom de la station.

Cliquer dessus pour voir les observations et prévisions météorologiques.

Pour changer de carte: cliquez sur les boutons verts avec une croix noire pour zoomer, sur le bouton vert avec un tiret pour effectuer un zoom arrière, ou sur les flèches vertes pour les cartes adjacentes.


METAR-TAF: